createdAt,value
2022-09-23T00:02:00.278Z,63.22
2022-09-23T00:04:47.006Z,63.54
2022-09-23T00:07:33.644Z,63.48
2022-09-23T00:10:20.420Z,63.05
2022-09-23T00:13:07.140Z,62.96
2022-09-23T00:15:53.860Z,63.18
2022-09-23T00:18:41.709Z,63.69
2022-09-23T00:21:28.522Z,63.48
2022-09-23T00:24:15.813Z,63.15
2022-09-23T00:27:02.509Z,63.36
2022-09-23T00:29:49.166Z,63.04
2022-09-23T00:32:36.489Z,63.06
2022-09-23T00:35:23.412Z,63.88
2022-09-23T00:38:10.069Z,63.80
2022-09-23T00:40:56.822Z,63.29
2022-09-23T00:43:44.957Z,63.97
2022-09-23T00:46:41.168Z,63.59
2022-09-23T00:49:29.249Z,63.47
2022-09-23T00:52:18.088Z,63.18
2022-09-23T00:55:06.640Z,63.30
2022-09-23T00:57:56.934Z,63.27
2022-09-23T01:00:43.712Z,63.92
2022-09-23T01:03:30.358Z,63.77
2022-09-23T01:06:17.121Z,63.35
2022-09-23T01:09:03.841Z,63.80
2022-09-23T01:12:10.024Z,63.49
2022-09-23T01:15:01.195Z,63.94
2022-09-23T01:18:04.259Z,63.77
2022-09-23T01:20:57.057Z,64.10
2022-09-23T01:23:55.991Z,63.80
2022-09-23T01:27:01.151Z,63.90
2022-09-23T01:30:03.836Z,64.08
2022-09-23T01:33:09.038Z,63.76
2022-09-23T01:36:10.130Z,63.80
2022-09-23T01:39:06.151Z,63.65
2022-09-23T01:41:54.718Z,63.93
2022-09-23T01:44:43.719Z,63.67
2022-09-23T01:47:31.091Z,63.72
2022-09-23T01:50:44.502Z,64.12
2022-09-23T01:53:39.746Z,63.89
2022-09-23T01:56:35.031Z,63.97
2022-09-23T01:59:35.491Z,63.88
2022-09-23T02:02:36.388Z,63.79
2022-09-23T02:05:41.997Z,64.01
2022-09-23T02:08:33.166Z,63.82
2022-09-23T02:11:20.021Z,63.87
2022-09-23T02:14:12.492Z,63.72
2022-09-23T02:17:00.740Z,64.00
2022-09-23T02:19:48.982Z,63.96
2022-09-23T02:23:06.114Z,64.04
2022-09-23T02:25:53.127Z,64.10
2022-09-23T02:28:52.441Z,64.15
2022-09-23T02:31:41.721Z,64.12
2022-09-23T02:34:50.579Z,64.27
2022-09-23T02:38:06.739Z,64.09
2022-09-23T02:40:54.507Z,64.07
2022-09-23T02:43:54.783Z,64.42
2022-09-23T02:46:43.524Z,64.20
2022-09-23T02:49:30.817Z,64.17
2022-09-23T02:52:18.063Z,64.22
2022-09-23T02:55:08.062Z,64.19
2022-09-23T02:57:54.707Z,64.23
2022-09-23T03:00:41.311Z,64.57
2022-09-23T03:03:27.913Z,64.48
2022-09-23T03:06:24.802Z,64.50
2022-09-23T03:09:34.711Z,64.75
2022-09-23T03:12:36.605Z,64.76
2022-09-23T03:15:27.943Z,64.87
2022-09-23T03:18:20.322Z,64.71
2022-09-23T03:21:07.949Z,64.76
2022-09-23T03:23:54.626Z,64.89
2022-09-23T03:26:42.501Z,64.99
2022-09-23T03:29:29.197Z,65.16
2022-09-23T03:32:16.479Z,64.95
2022-09-23T03:35:04.007Z,65.31
2022-09-23T03:37:55.502Z,65.04
2022-09-23T03:40:43.429Z,65.39
2022-09-23T03:43:30.560Z,65.32
2022-09-23T03:46:18.551Z,65.21
2022-09-23T03:49:09.471Z,65.46
2022-09-23T03:51:57.942Z,65.63
2022-09-23T03:54:44.734Z,65.48
2022-09-23T03:57:31.854Z,65.74
2022-09-23T04:00:18.608Z,65.69
2022-09-23T04:03:10.924Z,65.61
2022-09-23T04:05:58.430Z,65.65
2022-09-23T04:08:45.097Z,65.75
2022-09-23T04:11:31.759Z,65.66
2022-09-23T04:14:18.732Z,66.01
2022-09-23T04:17:05.371Z,65.91
2022-09-23T04:19:52.031Z,65.83
2022-09-23T04:22:38.688Z,66.21
2022-09-23T04:25:25.354Z,66.01
2022-09-23T04:28:12.027Z,66.05
2022-09-23T04:30:58.859Z,66.18
2022-09-23T04:33:45.495Z,66.15
2022-09-23T04:36:32.890Z,66.12
2022-09-23T04:39:19.554Z,66.37
2022-09-23T04:42:06.247Z,66.30
2022-09-23T04:44:52.923Z,66.37
2022-09-23T04:47:39.562Z,66.41
2022-09-23T04:50:26.268Z,66.49
2022-09-23T04:53:14.122Z,66.51
2022-09-23T04:56:08.245Z,66.58
2022-09-23T04:58:54.881Z,66.68
2022-09-23T05:01:41.724Z,66.50
2022-09-23T05:04:28.889Z,66.48
2022-09-23T05:07:17.032Z,66.75
2022-09-23T05:10:03.794Z,66.77
2022-09-23T05:12:53.644Z,66.45
2022-09-23T05:15:43.631Z,66.83
2022-09-23T05:18:33.694Z,66.91
2022-09-23T05:21:21.296Z,67.11
2022-09-23T05:24:08.718Z,66.69
2022-09-23T05:26:56.058Z,66.74
2022-09-23T05:29:42.732Z,66.96
2022-09-23T05:32:29.410Z,67.13
2022-09-23T05:35:16.049Z,66.89
2022-09-23T05:38:02.692Z,66.96
2022-09-23T05:40:56.113Z,67.37
2022-09-23T05:43:42.926Z,67.18
2022-09-23T05:46:30.156Z,67.06
2022-09-23T05:49:16.911Z,67.34
2022-09-23T05:52:03.548Z,67.13
2022-09-23T05:54:50.235Z,67.31
2022-09-23T05:57:37.087Z,67.25
2022-09-23T06:00:23.835Z,67.21
2022-09-23T06:03:13.562Z,67.43
2022-09-23T06:06:00.303Z,67.55
2022-09-23T06:08:47.213Z,67.43
2022-09-23T06:11:34.857Z,67.78
2022-09-23T06:14:21.554Z,67.67
2022-09-23T06:17:08.234Z,67.73
2022-09-23T06:19:54.985Z,67.68
2022-09-23T06:22:41.622Z,67.78
2022-09-23T06:25:28.266Z,67.85
2022-09-23T06:28:14.965Z,68.07
2022-09-23T06:31:09.625Z,68.06
2022-09-23T06:34:09.907Z,68.21
2022-09-23T06:37:00.658Z,68.27
2022-09-23T06:39:49.854Z,68.38
2022-09-23T06:42:36.493Z,68.67
2022-09-23T06:45:23.459Z,68.08
2022-09-23T06:48:10.159Z,68.41
2022-09-23T06:51:02.363Z,68.86
2022-09-23T06:53:49.305Z,69.13
2022-09-23T06:56:39.668Z,68.74
2022-09-23T06:59:26.621Z,68.37
2022-09-23T07:02:14.264Z,68.72
2022-09-23T07:05:01.028Z,68.73
2022-09-23T07:07:48.047Z,68.87
2022-09-23T07:10:35.008Z,68.49
2022-09-23T07:13:21.680Z,68.86
2022-09-23T07:16:08.689Z,69.02
2022-09-23T07:18:55.381Z,68.79
2022-09-23T07:21:42.017Z,69.76
2022-09-23T07:24:28.672Z,69.41
2022-09-23T07:27:19.348Z,69.72
2022-09-23T07:30:07.320Z,70.37
2022-09-23T07:32:56.092Z,70.28
2022-09-23T07:35:42.840Z,69.99
2022-09-23T07:38:30.099Z,69.96
2022-09-23T07:41:18.116Z,70.07
2022-09-23T07:44:06.038Z,69.87
2022-09-23T07:46:52.711Z,69.88
2022-09-23T07:49:39.475Z,70.18
2022-09-23T07:52:26.167Z,70.34
2022-09-23T07:55:18.786Z,70.54
2022-09-23T07:58:07.441Z,70.39
2022-09-23T08:00:54.100Z,70.22
2022-09-23T08:03:40.802Z,70.49
2022-09-23T08:06:27.508Z,70.99
2022-09-23T08:09:14.511Z,71.56
2022-09-23T08:12:01.361Z,71.29
2022-09-23T08:14:48.048Z,71.64
2022-09-23T08:17:34.671Z,71.62
2022-09-23T08:20:42.568Z,70.97
2022-09-23T08:23:33.481Z,71.14
2022-09-23T08:26:22.308Z,71.18
2022-09-23T08:29:12.008Z,70.77
2022-09-23T08:31:59.751Z,70.34
2022-09-23T08:34:46.407Z,70.42
2022-09-23T08:37:33.057Z,70.67
2022-09-23T08:40:19.765Z,69.97
2022-09-23T08:43:07.148Z,70.46
2022-09-23T08:45:54.342Z,70.27
2022-09-23T08:48:44.513Z,69.99
2022-09-23T08:51:36.441Z,70.03
2022-09-23T08:54:31.225Z,70.50
2022-09-23T08:57:23.992Z,70.53
2022-09-23T09:00:15.232Z,69.98
2022-09-23T09:03:02.018Z,69.90
2022-09-23T09:05:54.148Z,69.55
2022-09-23T09:08:41.282Z,69.09
2022-09-23T09:11:31.265Z,68.69
2022-09-23T09:14:17.881Z,68.40
2022-09-23T09:17:05.360Z,67.67
2022-09-23T09:19:53.631Z,67.67
2022-09-23T09:22:49.400Z,67.21
2022-09-23T09:25:38.903Z,67.29
2022-09-23T09:28:40.889Z,67.48
2022-09-23T09:31:38.219Z,66.24
2022-09-23T09:34:27.801Z,66.22
2022-09-23T09:37:33.621Z,65.97
2022-09-23T09:40:20.594Z,65.85
2022-09-23T09:43:07.751Z,65.70
2022-09-23T09:45:57.755Z,65.15
2022-09-23T09:48:53.648Z,65.58
2022-09-23T09:51:42.555Z,65.82
2022-09-23T09:54:29.899Z,65.78
2022-09-23T09:57:18.046Z,65.79
2022-09-23T10:00:20.003Z,65.27
2022-09-23T10:03:13.258Z,64.15
2022-09-23T10:06:00.111Z,63.81
2022-09-23T10:09:10.035Z,63.88
2022-09-23T10:12:15.507Z,63.61
2022-09-23T10:15:02.170Z,63.49
2022-09-23T10:17:49.726Z,63.23
2022-09-23T10:20:38.052Z,62.67
2022-09-23T10:23:25.842Z,62.27
2022-09-23T10:26:12.853Z,61.90
2022-09-23T10:29:23.210Z,61.88
2022-09-23T10:32:14.406Z,61.15
2022-09-23T10:35:04.665Z,60.51
2022-09-23T10:37:56.430Z,59.58
2022-09-23T10:41:02.107Z,60.77
2022-09-23T10:43:57.914Z,59.59
2022-09-23T10:46:47.528Z,58.67
2022-09-23T10:49:47.561Z,58.45
2022-09-23T10:52:54.414Z,59.09
2022-09-23T10:55:57.119Z,57.76
2022-09-23T10:58:43.783Z,58.51
2022-09-23T11:01:43.876Z,56.77
2022-09-23T11:04:34.064Z,56.38
2022-09-23T11:07:26.746Z,55.93
2022-09-23T11:10:44.974Z,55.35
2022-09-23T11:13:35.345Z,55.97
2022-09-23T11:16:25.100Z,56.13
2022-09-23T11:19:34.080Z,55.65
2022-09-23T11:22:37.392Z,55.54
2022-09-23T11:25:42.938Z,54.47
2022-09-23T11:28:46.355Z,54.25
2022-09-23T11:31:49.446Z,54.54
2022-09-23T11:34:54.833Z,53.73
2022-09-23T11:37:46.137Z,53.75
2022-09-23T11:40:34.965Z,53.44
2022-09-23T11:43:23.435Z,53.76
2022-09-23T11:46:30.610Z,52.65
2022-09-23T11:49:27.430Z,52.42
2022-09-23T11:52:20.479Z,51.92
2022-09-23T11:55:20.027Z,51.51
2022-09-23T11:58:22.551Z,51.42
2022-09-23T12:01:28.031Z,50.91
2022-09-23T12:04:32.143Z,51.02
2022-09-23T12:07:20.786Z,50.56
2022-09-23T12:10:08.202Z,50.58
2022-09-23T12:12:54.854Z,50.64
2022-09-23T12:15:47.705Z,50.08
2022-09-23T12:18:55.600Z,50.12
2022-09-23T12:21:52.208Z,49.11
2022-09-23T12:24:44.840Z,48.64
2022-09-23T12:27:36.836Z,48.97
2022-09-23T12:30:24.981Z,48.81
2022-09-23T12:33:17.196Z,48.85
2022-09-23T12:36:06.756Z,48.90
2022-09-23T12:38:54.636Z,48.88
2022-09-23T12:41:41.575Z,48.69
2022-09-23T12:44:39.113Z,49.36
2022-09-23T12:47:36.983Z,49.80
2022-09-23T12:51:02.369Z,49.04
2022-09-23T12:53:54.918Z,48.49
2022-09-23T12:56:43.254Z,48.57
2022-09-23T12:59:30.874Z,49.00
2022-09-23T13:02:27.760Z,49.21
2022-09-23T13:05:39.807Z,49.21
2022-09-23T13:08:26.442Z,49.79
2022-09-23T13:11:19.494Z,47.08
2022-09-23T13:14:10.513Z,45.81
2022-09-23T13:16:58.362Z,46.53
2022-09-23T13:19:45.343Z,46.93
2022-09-23T13:22:41.383Z,47.04
2022-09-23T13:25:28.767Z,46.75
2022-09-23T13:28:21.703Z,46.26
2022-09-23T13:31:13.721Z,43.55
2022-09-23T13:34:02.013Z,43.74
2022-09-23T13:36:48.891Z,44.34
2022-09-23T13:39:35.528Z,45.31
2022-09-23T13:42:28.673Z,45.41
2022-09-23T13:45:19.422Z,45.92
2022-09-23T13:48:07.269Z,45.76
2022-09-23T13:50:54.296Z,45.21
2022-09-23T13:53:41.101Z,44.94
2022-09-23T13:56:28.978Z,45.53
2022-09-23T13:59:25.668Z,44.15
2022-09-23T14:02:13.101Z,44.19
2022-09-23T14:04:59.790Z,43.05
2022-09-23T14:07:46.441Z,43.62
2022-09-23T14:10:33.741Z,44.09
2022-09-23T14:13:25.757Z,44.29
2022-09-23T14:16:14.963Z,44.78
2022-09-23T14:19:01.727Z,44.19
2022-09-23T14:21:49.475Z,44.52
2022-09-23T14:24:36.282Z,44.59
2022-09-23T14:27:32.638Z,44.62
2022-09-23T14:30:19.282Z,44.73
2022-09-23T14:33:09.708Z,44.98
2022-09-23T14:36:29.419Z,45.37
2022-09-23T14:39:16.079Z,45.23
2022-09-23T14:42:06.618Z,45.37
2022-09-23T14:44:53.255Z,45.75
2022-09-23T14:47:42.075Z,45.44
2022-09-23T14:50:47.037Z,45.37
2022-09-23T14:53:33.858Z,45.73
2022-09-23T14:56:21.222Z,45.95
2022-09-23T14:59:23.384Z,45.01
2022-09-23T15:02:45.731Z,45.59
2022-09-23T15:05:39.667Z,45.64
2022-09-23T15:08:27.196Z,45.85
2022-09-23T15:11:13.858Z,45.93
2022-09-23T15:14:19.555Z,46.04
2022-09-23T15:17:12.711Z,46.33
2022-09-23T15:20:00.788Z,46.43
2022-09-23T15:22:48.818Z,46.69
2022-09-23T15:25:40.013Z,46.61
2022-09-23T15:28:27.164Z,46.26
2022-09-23T15:31:15.832Z,46.06
2022-09-23T15:34:02.668Z,46.04
2022-09-23T15:36:49.604Z,46.07
2022-09-23T15:39:42.894Z,46.36
2022-09-23T15:42:29.634Z,46.44
2022-09-23T15:45:16.401Z,46.27
2022-09-23T15:48:06.076Z,47.88
2022-09-23T15:50:52.894Z,47.89
2022-09-23T15:53:39.626Z,47.61
2022-09-23T15:56:29.296Z,47.12
2022-09-23T15:59:16.008Z,47.47
2022-09-23T16:02:06.769Z,47.25
2022-09-23T16:04:53.643Z,47.51
2022-09-23T16:07:40.408Z,47.16
2022-09-23T16:10:27.522Z,47.75
2022-09-23T16:13:14.348Z,47.70
2022-09-23T16:16:01.208Z,47.63
2022-09-23T16:18:48.696Z,47.84
2022-09-23T16:21:35.405Z,48.10
2022-09-23T16:24:27.382Z,48.24
2022-09-23T16:27:14.901Z,48.71
2022-09-23T16:30:01.695Z,49.28
2022-09-23T16:32:48.537Z,49.67
2022-09-23T16:35:35.166Z,49.85
2022-09-23T16:38:21.822Z,50.53
2022-09-23T16:41:09.011Z,50.56
2022-09-23T16:43:56.277Z,51.11
2022-09-23T16:46:43.173Z,51.08
2022-09-23T16:49:29.821Z,51.19
2022-09-23T16:52:16.843Z,51.30
2022-09-23T16:55:03.854Z,51.52
2022-09-23T16:57:50.699Z,52.18
2022-09-23T17:00:58.683Z,52.14
2022-09-23T17:03:47.147Z,52.39
2022-09-23T17:06:33.827Z,52.45
2022-09-23T17:09:21.415Z,52.77
2022-09-23T17:12:11.509Z,52.77
2022-09-23T17:14:58.499Z,52.80
2022-09-23T17:17:45.137Z,52.93
2022-09-23T17:20:31.858Z,52.81
2022-09-23T17:23:21.251Z,53.41
2022-09-23T17:26:12.506Z,53.48
2022-09-23T17:29:01.937Z,53.57
2022-09-23T17:31:48.616Z,53.61
2022-09-23T17:34:35.409Z,53.96
2022-09-23T17:37:22.231Z,53.97
2022-09-23T17:40:09.102Z,53.93
2022-09-23T17:43:03.311Z,54.98
2022-09-23T17:45:50.061Z,55.00
2022-09-23T17:48:37.661Z,54.70
2022-09-23T17:51:25.261Z,54.46
2022-09-23T17:54:12.107Z,55.03
2022-09-23T17:56:59.268Z,54.77
2022-09-23T17:59:45.998Z,54.86
2022-09-23T18:02:32.713Z,54.91
2022-09-23T18:05:19.512Z,54.66
2022-09-23T18:08:06.244Z,54.59
2022-09-23T18:10:52.926Z,54.72
2022-09-23T18:13:39.592Z,54.38
2022-09-23T18:16:30.221Z,55.15
2022-09-23T18:19:18.056Z,55.10
2022-09-23T18:22:04.682Z,54.95
2022-09-23T18:24:51.329Z,54.93
2022-09-23T18:27:37.972Z,54.80
2022-09-23T18:30:25.034Z,54.69
2022-09-23T18:33:11.673Z,55.82
2022-09-23T18:36:01.748Z,55.24
2022-09-23T18:38:48.571Z,55.30
2022-09-23T18:41:35.227Z,55.61
2022-09-23T18:44:23.273Z,55.29
2022-09-23T18:47:29.886Z,55.57
2022-09-23T18:50:35.134Z,55.69
2022-09-23T18:53:24.194Z,55.92
2022-09-23T18:56:12.222Z,55.93
2022-09-23T18:58:59.136Z,56.04
2022-09-23T19:01:46.141Z,56.35
2022-09-23T19:04:32.928Z,56.82
2022-09-23T19:07:21.849Z,56.42
2022-09-23T19:10:08.781Z,56.22
2022-09-23T19:12:55.471Z,56.64
2022-09-23T19:15:42.199Z,56.45
2022-09-23T19:18:31.461Z,56.10
2022-09-23T19:21:22.097Z,57.25
2022-09-23T19:24:08.938Z,56.43
2022-09-23T19:26:56.383Z,56.52
2022-09-23T19:29:43.029Z,57.25
2022-09-23T19:32:30.016Z,56.81
2022-09-23T19:35:16.784Z,57.18
2022-09-23T19:38:03.629Z,57.02
2022-09-23T19:40:52.055Z,57.40
2022-09-23T19:43:38.813Z,57.17
2022-09-23T19:46:25.804Z,57.88
2022-09-23T19:49:13.009Z,57.98
2022-09-23T19:52:00.408Z,57.48
2022-09-23T19:54:48.649Z,57.48
2022-09-23T19:57:35.311Z,57.99
2022-09-23T20:00:22.732Z,57.83
2022-09-23T20:03:09.720Z,58.18
2022-09-23T20:05:56.874Z,58.01
2022-09-23T20:08:43.770Z,57.99
2022-09-23T20:11:31.533Z,58.13
2022-09-23T20:14:19.719Z,58.37
2022-09-23T20:17:07.598Z,58.71
2022-09-23T20:19:54.263Z,58.02
2022-09-23T20:22:43.324Z,58.22
2022-09-23T20:25:49.966Z,58.79
2022-09-23T20:28:36.604Z,58.95
2022-09-23T20:31:23.792Z,58.72
2022-09-23T20:34:11.145Z,59.17
2022-09-23T20:36:59.131Z,59.16
2022-09-23T20:39:49.126Z,59.16
2022-09-23T20:42:35.776Z,59.45
2022-09-23T20:45:22.427Z,59.33
2022-09-23T20:48:11.328Z,59.76
2022-09-23T20:51:01.594Z,59.58
2022-09-23T20:53:49.109Z,59.70
2022-09-23T20:56:35.789Z,59.32
2022-09-23T20:59:22.445Z,59.86
2022-09-23T21:02:09.589Z,59.96
2022-09-23T21:04:56.863Z,59.49
2022-09-23T21:07:46.326Z,60.09
2022-09-23T21:10:33.224Z,59.72
2022-09-23T21:13:19.871Z,60.15
2022-09-23T21:16:08.150Z,60.04
2022-09-23T21:18:54.843Z,60.05
2022-09-23T21:21:41.576Z,59.80
2022-09-23T21:27:38.562Z,60.46
2022-09-23T21:30:25.539Z,60.54
2022-09-23T21:33:13.084Z,60.43
2022-09-23T21:36:03.574Z,60.91
2022-09-23T21:38:50.659Z,61.03
2022-09-23T21:41:37.710Z,60.99
2022-09-23T21:44:24.796Z,60.86
2022-09-23T21:47:11.538Z,61.13
2022-09-23T21:49:58.209Z,61.04
2022-09-23T21:52:50.309Z,61.29
2022-09-23T21:55:37.439Z,61.43
2022-09-23T21:58:26.612Z,61.38
2022-09-23T22:01:20.357Z,61.56
2022-09-23T22:04:09.160Z,61.45
2022-09-23T22:06:56.035Z,61.66
2022-09-23T22:09:46.828Z,61.84
2022-09-23T22:12:33.760Z,61.88
2022-09-23T22:15:20.416Z,61.61
2022-09-23T22:18:07.144Z,61.76
2022-09-23T22:20:55.343Z,61.81
2022-09-23T22:23:42.174Z,61.91
2022-09-23T22:26:29.230Z,62.15
2022-09-23T22:29:34.661Z,61.86
2022-09-23T22:32:55.331Z,62.10
2022-09-23T22:35:42.071Z,62.24
2022-09-23T22:38:29.636Z,62.54
2022-09-23T22:41:16.325Z,62.42
2022-09-23T22:44:03.658Z,62.48
2022-09-23T22:46:51.025Z,62.44
2022-09-23T22:49:37.732Z,62.63
2022-09-23T22:52:24.545Z,62.80
2022-09-23T22:55:11.762Z,62.48
2022-09-23T22:58:10.449Z,62.27
2022-09-23T23:01:05.424Z,62.61
2022-09-23T23:03:54.970Z,62.46
2022-09-23T23:06:42.785Z,62.72
2022-09-23T23:09:29.456Z,62.57
2022-09-23T23:12:16.742Z,62.96
2022-09-23T23:15:03.556Z,62.83
2022-09-23T23:17:52.183Z,62.85
2022-09-23T23:20:38.980Z,62.80
2022-09-23T23:23:25.624Z,63.36
2022-09-23T23:26:15.041Z,63.15
2022-09-23T23:29:01.729Z,62.90
2022-09-23T23:31:48.566Z,63.15
2022-09-23T23:34:35.324Z,63.41
2022-09-23T23:37:21.967Z,63.28
2022-09-23T23:40:08.917Z,63.32
2022-09-23T23:42:55.670Z,63.31
2022-09-23T23:45:43.665Z,63.44
2022-09-23T23:48:30.576Z,63.16
2022-09-23T23:51:17.280Z,63.52
2022-09-23T23:54:04.111Z,63.33
2022-09-23T23:56:51.004Z,63.72
2022-09-23T23:59:37.666Z,63.57
